createdAt,value
2022-11-24T00:02:07.985Z,97656.44
2022-11-24T00:05:11.638Z,97654.47
2022-11-24T00:08:15.881Z,97658.97
2022-11-24T00:11:21.949Z,97656.66
2022-11-24T00:14:26.864Z,97649.84
2022-11-24T00:17:30.427Z,97658.16
2022-11-24T00:20:33.906Z,97660.91
2022-11-24T00:23:38.832Z,97657.00
2022-11-24T00:26:43.386Z,97659.41
2022-11-24T00:29:47.916Z,97655.22
2022-11-24T00:32:51.515Z,97654.06
2022-11-24T00:35:58.509Z,97657.75
2022-11-24T00:39:04.963Z,97663.63
2022-11-24T00:42:08.341Z,97662.81
2022-11-24T00:45:14.341Z,97668.91
2022-11-24T00:48:17.880Z,97663.22
2022-11-24T00:51:24.816Z,97669.09
2022-11-24T00:54:28.140Z,97669.91
2022-11-24T00:57:31.599Z,97674.63
2022-11-24T01:00:36.313Z,97675.53
2022-11-24T01:03:41.064Z,97676.06
2022-11-24T01:06:44.345Z,97679.88
2022-11-24T01:09:47.795Z,97682.41
2022-11-24T01:12:51.341Z,97680.06
2022-11-24T01:15:56.546Z,97674.19
2022-11-24T01:19:00.493Z,97676.13
2022-11-24T01:22:04.372Z,97678.09
2022-11-24T01:25:09.388Z,97675.44
2022-11-24T01:28:12.994Z,97675.31
2022-11-24T01:31:17.794Z,97686.72
2022-11-24T01:34:21.568Z,97680.44
2022-11-24T01:37:25.011Z,97680.44
2022-11-24T01:40:28.638Z,97694.28
2022-11-24T01:43:32.715Z,97691.88
2022-11-24T01:46:47.726Z,97694.63
2022-11-24T01:49:57.064Z,97691.53
2022-11-24T01:53:00.909Z,97691.53
2022-11-24T01:56:06.545Z,97699.38
2022-11-24T01:59:17.154Z,97704.47
2022-11-24T02:02:23.488Z,97708.84
2022-11-24T02:05:35.997Z,97709.22
2022-11-24T02:08:48.126Z,97698.69
2022-11-24T02:11:55.055Z,97700.16
2022-11-24T02:15:00.377Z,97697.31
2022-11-24T02:18:05.758Z,97705.28
2022-11-24T02:21:11.051Z,97704.47
2022-11-24T02:24:26.401Z,97695.03
2022-11-24T02:27:31.981Z,97694.34
2022-11-24T02:30:36.378Z,97695.25
2022-11-24T02:33:40.215Z,97692.03
2022-11-24T02:36:43.720Z,97685.16
2022-11-24T02:39:47.081Z,97689.16
2022-11-24T02:42:56.176Z,97682.19
2022-11-24T02:45:59.552Z,97688.13
2022-11-24T02:49:03.119Z,97687.94
2022-11-24T02:52:08.291Z,97690.53
2022-11-24T02:55:11.893Z,97684.91
2022-11-24T02:58:16.639Z,97681.19
2022-11-24T03:01:20.721Z,97691.41
2022-11-24T03:04:24.553Z,97682.63
2022-11-24T03:07:28.452Z,97678.91
2022-11-24T03:10:32.132Z,97687.72
2022-11-24T03:13:37.013Z,97680.13
2022-11-24T03:16:40.388Z,97679.53
2022-11-24T03:19:43.908Z,97680.94
2022-11-24T03:22:47.170Z,97689.72
2022-11-24T03:25:50.724Z,97691.50
2022-11-24T03:28:57.395Z,97685.94
2022-11-24T03:32:00.979Z,97690.13
2022-11-24T03:35:06.039Z,97687.28
2022-11-24T03:38:09.577Z,97687.41
2022-11-24T03:41:13.240Z,97684.78
2022-11-24T03:44:18.187Z,97690.75
2022-11-24T03:47:21.402Z,97689.25
2022-11-24T03:50:24.902Z,97694.56
2022-11-24T03:53:30.723Z,97695.81
2022-11-24T03:56:34.327Z,97695.38
2022-11-24T03:59:39.213Z,97705.25
2022-11-24T04:02:42.819Z,97701.22
2022-11-24T04:05:46.963Z,97702.03
2022-11-24T04:08:50.739Z,97704.31
2022-11-24T04:12:11.667Z,97700.28
2022-11-24T04:15:20.688Z,97706.59
2022-11-24T04:18:24.148Z,97702.81
2022-11-24T04:21:27.641Z,97699.94
2022-11-24T04:24:31.521Z,97706.59
2022-11-24T04:27:36.984Z,97718.78
2022-11-24T04:30:44.904Z,97722.72
2022-11-24T04:33:48.712Z,97725.66
2022-11-24T04:36:52.158Z,97731.19
2022-11-24T04:39:56.124Z,97729.91
2022-11-24T04:42:59.801Z,97739.00
2022-11-24T04:46:04.806Z,97731.06
2022-11-24T04:49:11.561Z,97734.97
2022-11-24T04:52:15.032Z,97740.78
2022-11-24T04:55:18.599Z,97745.81
2022-11-24T04:58:22.147Z,97742.63
2022-11-24T05:01:27.119Z,97748.94
2022-11-24T05:04:30.727Z,97745.59
2022-11-24T05:07:34.826Z,97752.72
2022-11-24T05:10:38.949Z,97749.81
2022-11-24T05:13:42.257Z,97747.06
2022-11-24T05:16:47.373Z,97751.56
2022-11-24T05:19:50.892Z,97751.09
2022-11-24T05:22:54.438Z,97756.94
2022-11-24T05:26:01.987Z,97753.53
2022-11-24T05:29:05.653Z,97748.69
2022-11-24T05:32:10.482Z,97757.91
2022-11-24T05:35:14.499Z,97760.19
2022-11-24T05:38:19.596Z,97764.56
2022-11-24T05:41:23.295Z,97764.91
2022-11-24T05:44:26.564Z,97761.31
2022-11-24T05:47:31.437Z,97771.22
2022-11-24T05:50:36.652Z,97772.38
2022-11-24T05:53:40.166Z,97769.13
2022-11-24T05:56:43.739Z,97772.69
2022-11-24T05:59:47.643Z,97773.50
2022-11-24T06:02:52.631Z,97792.94
2022-11-24T06:05:56.386Z,97792.81
2022-11-24T06:09:00.489Z,97795.91
2022-11-24T06:12:04.739Z,97796.72
2022-11-24T06:15:09.283Z,97802.28
2022-11-24T06:18:14.347Z,97804.28
2022-11-24T06:21:18.228Z,97804.16
2022-11-24T06:24:21.737Z,97804.25
2022-11-24T06:27:25.835Z,97818.44
2022-11-24T06:30:29.480Z,97823.56
2022-11-24T06:33:36.724Z,97822.03
2022-11-24T06:36:40.622Z,97817.34
2022-11-24T06:39:44.094Z,97830.91
2022-11-24T06:42:52.783Z,97822.28
2022-11-24T06:45:56.548Z,97834.44
2022-11-24T06:49:02.534Z,97840.84
2022-11-24T06:52:06.150Z,97833.28
2022-11-24T06:55:10.574Z,97832.44
2022-11-24T06:58:14.325Z,97834.09
2022-11-24T07:01:20.120Z,97847.44
2022-11-24T07:04:25.336Z,97847.53
2022-11-24T07:07:28.968Z,97845.16
2022-11-24T07:10:32.858Z,97844.50
2022-11-24T07:13:37.230Z,97848.84
2022-11-24T07:16:40.778Z,97853.94
2022-11-24T07:19:46.023Z,97853.16
2022-11-24T07:22:49.392Z,97857.66
2022-11-24T07:25:52.925Z,97862.84
2022-11-24T07:28:56.346Z,97858.16
2022-11-24T07:32:05.232Z,97866.00
2022-11-24T07:35:10.774Z,97867.31
2022-11-24T07:38:14.425Z,97866.03
2022-11-24T07:41:20.414Z,97864.19
2022-11-24T07:44:24.499Z,97860.66
2022-11-24T07:47:28.104Z,97852.25
2022-11-24T07:50:32.984Z,97856.75
2022-11-24T07:53:37.562Z,97865.09
2022-11-24T07:56:41.211Z,97867.03
2022-11-24T07:59:44.480Z,97871.00
2022-11-24T08:02:48.096Z,97871.59
2022-11-24T08:09:20.281Z,97872.88
2022-11-24T08:12:23.739Z,97875.81
2022-11-24T08:15:27.674Z,97878.66
2022-11-24T08:18:30.957Z,97880.88
2022-11-24T08:21:35.831Z,97883.88
2022-11-24T08:24:45.964Z,97891.81
2022-11-24T08:27:49.413Z,97896.53
2022-11-24T08:30:52.676Z,97889.06
2022-11-24T08:33:57.100Z,97886.28
2022-11-24T08:37:02.017Z,97896.31
2022-11-24T08:40:06.920Z,97894.25
2022-11-24T08:43:10.219Z,97901.38
2022-11-24T08:46:17.937Z,97904.63
2022-11-24T08:49:22.274Z,97908.53
2022-11-24T08:52:27.630Z,97909.09
2022-11-24T08:55:31.034Z,97915.09
2022-11-24T08:58:35.333Z,97913.47
2022-11-24T09:01:39.545Z,97908.75
2022-11-24T09:04:43.507Z,97913.47
2022-11-24T09:07:48.288Z,97910.72
2022-11-24T09:10:52.140Z,97907.38
2022-11-24T09:13:56.724Z,97913.78
2022-11-24T09:17:00.628Z,97912.41
2022-11-24T09:20:05.046Z,97903.97
2022-11-24T09:23:10.876Z,97915.03
2022-11-24T09:26:17.933Z,97911.97
2022-11-24T09:29:21.405Z,97918.88
2022-11-24T09:32:24.933Z,97909.25
2022-11-24T09:35:28.681Z,97920.00
2022-11-24T09:38:34.060Z,97930.34
2022-11-24T09:42:03.919Z,97915.69
2022-11-24T09:45:35.399Z,97924.28
2022-11-24T09:48:50.544Z,97922.84
2022-11-24T09:51:58.167Z,97918.25
2022-11-24T09:55:16.089Z,97922.25
2022-11-24T09:58:34.914Z,97920.72
2022-11-24T10:01:44.100Z,97922.72
2022-11-24T10:04:48.334Z,97923.41
2022-11-24T10:08:11.428Z,97917.09
2022-11-24T10:11:29.740Z,97921.50
2022-11-24T10:15:15.038Z,97915.06
2022-11-24T10:18:43.937Z,97927.28
2022-11-24T10:22:15.701Z,97919.38
2022-11-24T10:25:26.252Z,97924.00
2022-11-24T10:28:44.086Z,97926.81
2022-11-24T10:31:53.208Z,97930.97
2022-11-24T10:35:07.378Z,97924.66
2022-11-24T10:38:32.970Z,97928.59
2022-11-24T10:41:50.607Z,97927.16
2022-11-24T10:45:03.246Z,97933.03
2022-11-24T10:48:22.445Z,97935.34
2022-11-24T10:51:53.732Z,97933.09
2022-11-24T10:55:00.102Z,97937.00
2022-11-24T10:58:17.537Z,97931.81
2022-11-24T11:01:33.869Z,97933.59
2022-11-24T11:04:37.727Z,97930.88
2022-11-24T11:07:41.274Z,97937.03
2022-11-24T11:10:47.259Z,97938.16
2022-11-24T11:14:03.149Z,97936.88
2022-11-24T11:17:36.764Z,97940.59
2022-11-24T11:20:40.897Z,97939.97
2022-11-24T11:23:46.661Z,97933.31
2022-11-24T11:27:02.081Z,97940.28
2022-11-24T11:34:04.972Z,97937.03
2022-11-24T11:37:14.861Z,97940.91
2022-11-24T11:40:25.118Z,97943.34
2022-11-24T11:43:35.759Z,97948.19
2022-11-24T11:46:39.662Z,97940.09
2022-11-24T11:49:46.295Z,97940.84
2022-11-24T11:53:23.016Z,97948.06
2022-11-24T11:56:31.293Z,97952.44
2022-11-24T11:59:55.026Z,97955.88
2022-11-24T12:03:40.642Z,97952.66
2022-11-24T12:07:15.974Z,97955.69
2022-11-24T12:10:35.747Z,97954.16
2022-11-24T12:14:15.216Z,97961.63
2022-11-24T12:17:33.499Z,97948.19
2022-11-24T12:20:56.805Z,97954.38
2022-11-24T12:24:16.225Z,97958.44
2022-11-24T12:27:40.227Z,97959.28
2022-11-24T12:31:00.497Z,97957.38
2022-11-24T12:34:30.465Z,97964.91
2022-11-24T12:37:54.562Z,97963.66
2022-11-24T12:41:41.297Z,97959.34
2022-11-24T12:45:16.219Z,97977.41
2022-11-24T12:48:45.502Z,97974.97
2022-11-24T12:52:00.848Z,97971.75
2022-11-24T12:55:06.762Z,97979.72
2022-11-24T12:58:24.445Z,97974.03
2022-11-24T13:01:40.733Z,97975.66
2022-11-24T13:04:55.939Z,97981.84
2022-11-24T13:08:03.541Z,97975.22
2022-11-24T13:11:41.234Z,97981.22
2022-11-24T13:14:49.798Z,97980.09
2022-11-24T13:18:08.604Z,97986.75
2022-11-24T13:21:35.845Z,97987.22
2022-11-24T13:24:41.493Z,97986.25
2022-11-24T13:27:49.284Z,97995.31
2022-11-24T13:31:12.747Z,97999.38
2022-11-24T13:34:55.933Z,98000.50
2022-11-24T13:37:59.349Z,98002.13
2022-11-24T13:41:21.266Z,98001.81
2022-11-24T13:44:25.935Z,98004.88
2022-11-24T13:47:35.313Z,98009.75
2022-11-24T13:51:23.137Z,98013.78
2022-11-24T13:54:29.882Z,98018.16
2022-11-24T13:57:35.519Z,98019.78
2022-11-24T14:01:03.927Z,98024.31
2022-11-24T14:04:35.234Z,98034.03
2022-11-24T14:07:42.822Z,98028.22
2022-11-24T14:10:46.982Z,98039.72
2022-11-24T14:13:50.567Z,98055.75
2022-11-24T14:17:19.175Z,98051.56
2022-11-24T14:20:28.344Z,98057.22
2022-11-24T14:23:32.885Z,98064.97
2022-11-24T14:26:39.950Z,98067.75
2022-11-24T14:29:55.877Z,98071.78
2022-11-24T14:33:01.858Z,98073.06
2022-11-24T14:36:06.989Z,98078.25
2022-11-24T14:39:15.059Z,98078.25
2022-11-24T14:42:22.600Z,98091.53
2022-11-24T14:45:26.122Z,98091.72
2022-11-24T14:48:33.887Z,98096.09
2022-11-24T14:51:45.526Z,98101.59
2022-11-24T14:54:53.422Z,98088.94
2022-11-24T14:57:57.647Z,98095.59
2022-11-24T15:01:19.417Z,98101.13
2022-11-24T15:08:00.689Z,98106.63
2022-11-24T15:11:07.702Z,98119.75
2022-11-24T15:14:40.547Z,98125.09
2022-11-24T15:17:50.580Z,98123.47
2022-11-24T15:20:54.802Z,98126.53
2022-11-24T15:24:18.874Z,98120.69
2022-11-24T15:27:22.286Z,98130.91
2022-11-24T15:30:26.719Z,98131.19
2022-11-24T15:33:30.617Z,98133.81
2022-11-24T15:36:34.683Z,98133.94
2022-11-24T15:39:39.203Z,98146.59
2022-11-24T15:42:43.078Z,98148.22
2022-11-24T15:45:46.438Z,98149.81
2022-11-24T15:48:50.130Z,98155.31
2022-11-24T15:51:53.414Z,98150.31
2022-11-24T15:54:59.459Z,98148.88
2022-11-24T15:58:02.662Z,98147.34
2022-11-24T16:01:06.426Z,98148.34
2022-11-24T16:04:12.394Z,98150.63
2022-11-24T16:07:17.061Z,98151.91
2022-11-24T16:10:29.294Z,98152.50
2022-11-24T16:13:32.897Z,98155.28
2022-11-24T16:16:36.331Z,98157.84
2022-11-24T16:19:41.979Z,98163.84
2022-11-24T16:22:46.020Z,98162.72
2022-11-24T16:25:51.209Z,98165.97
2022-11-24T16:28:55.042Z,98168.91
2022-11-24T16:31:58.808Z,98173.13
2022-11-24T16:35:02.162Z,98163.75
2022-11-24T16:38:05.843Z,98169.78
2022-11-24T16:41:11.635Z,98179.91
2022-11-24T16:44:15.387Z,98178.97
2022-11-24T16:47:19.192Z,98172.66
2022-11-24T16:50:23.029Z,98173.50
2022-11-24T16:53:26.279Z,98180.97
2022-11-24T16:56:32.643Z,98179.84
2022-11-24T16:59:35.865Z,98186.38
2022-11-24T17:02:40.226Z,98185.25
2022-11-24T17:05:43.741Z,98187.53
2022-11-24T17:08:48.879Z,98188.34
2022-11-24T17:11:53.483Z,98197.44
2022-11-24T17:15:24.472Z,98202.94
2022-11-24T17:18:25.123Z,98209.06
2022-11-24T17:21:29.309Z,98205.69
2022-11-24T17:24:32.712Z,98208.09
2022-11-24T17:27:38.079Z,98210.84
2022-11-24T17:30:41.771Z,98211.66
2022-11-24T17:33:45.467Z,98216.56
2022-11-24T17:36:48.697Z,98223.06
2022-11-24T17:40:12.964Z,98217.53
2022-11-24T17:43:16.895Z,98228.88
2022-11-24T17:46:21.374Z,98217.00
2022-11-24T17:49:24.712Z,98222.78
2022-11-24T17:52:30.825Z,98221.66
2022-11-24T17:55:36.629Z,98225.66
2022-11-24T17:58:43.285Z,98230.91
2022-11-24T18:01:46.951Z,98231.72
2022-11-24T18:04:50.661Z,98241.75
2022-11-24T18:07:55.149Z,98242.50
2022-11-24T18:11:05.504Z,98249.56
2022-11-24T18:14:11.153Z,98250.41
2022-11-24T18:17:15.129Z,98259.66
2022-11-24T18:20:21.036Z,98268.91
2022-11-24T18:23:25.236Z,98269.91
2022-11-24T18:26:28.654Z,98259.88
2022-11-24T18:29:36.707Z,98270.03
2022-11-24T18:32:40.656Z,98276.06
2022-11-24T18:35:44.955Z,98265.03
2022-11-24T18:38:48.320Z,98267.94
2022-11-24T18:41:52.398Z,98275.56
2022-11-24T18:44:57.613Z,98269.31
2022-11-24T18:48:01.704Z,98268.84
2022-11-24T18:51:05.671Z,98262.03
2022-11-24T18:54:10.202Z,98259.59
2022-11-24T18:57:13.374Z,98270.50
2022-11-24T19:00:19.104Z,98275.59
2022-11-24T19:03:22.567Z,98277.69
2022-11-24T19:06:32.337Z,98278.50
2022-11-24T19:09:36.169Z,98284.25
2022-11-24T19:12:39.906Z,98282.50
2022-11-24T19:15:44.468Z,98296.16
2022-11-24T19:18:53.625Z,98286.09
2022-11-24T19:21:57.648Z,98289.00
2022-11-24T19:25:01.194Z,98300.66
2022-11-24T19:28:04.935Z,98292.69
2022-11-24T19:31:13.989Z,98295.91
2022-11-24T19:34:17.591Z,98293.81
2022-11-24T19:37:21.482Z,98299.28
2022-11-24T19:40:24.730Z,98298.00
2022-11-24T19:43:28.452Z,98297.53
2022-11-24T19:46:33.476Z,98304.22
2022-11-24T19:49:37.085Z,98304.09
2022-11-24T19:52:40.312Z,98309.19
2022-11-24T19:55:43.725Z,98313.00
2022-11-24T19:58:48.470Z,98317.38
2022-11-24T20:01:54.322Z,98317.38
2022-11-24T20:04:57.592Z,98323.63
2022-11-24T20:08:01.554Z,98324.75
2022-11-24T20:11:07.224Z,98326.03
2022-11-24T20:14:14.589Z,98330.09
2022-11-24T20:17:20.247Z,98327.53
2022-11-24T20:20:24.467Z,98332.59
2022-11-24T20:23:27.638Z,98334.69
2022-11-24T20:26:35.453Z,98341.19
2022-11-24T20:29:45.272Z,98340.25
2022-11-24T20:32:51.875Z,98344.63
2022-11-24T20:35:55.557Z,98344.16
2022-11-24T20:39:02.834Z,98351.13
2022-11-24T20:42:07.257Z,98340.84
2022-11-24T20:45:10.989Z,98345.25
2022-11-24T20:48:15.658Z,98347.88
2022-11-24T20:51:22.483Z,98349.69
2022-11-24T20:54:25.943Z,98348.09
2022-11-24T20:57:29.859Z,98358.03
2022-11-24T21:00:33.206Z,98355.38
2022-11-24T21:03:43.064Z,98354.69
2022-11-24T21:06:47.483Z,98361.25
2022-11-24T21:09:51.141Z,98357.22
2022-11-24T21:12:54.353Z,98351.19
2022-11-24T21:15:58.739Z,98356.06
2022-11-24T21:19:08.807Z,98352.28
2022-11-24T21:22:12.764Z,98358.03
2022-11-24T21:25:16.138Z,98355.72
2022-11-24T21:28:19.770Z,98358.25
2022-11-24T21:31:23.117Z,98354.97
2022-11-24T21:34:28.843Z,98348.63
2022-11-24T21:37:32.005Z,98360.38
2022-11-24T21:40:35.906Z,98357.63
2022-11-24T21:43:39.401Z,98359.09
2022-11-24T21:46:48.049Z,98357.81
2022-11-24T21:49:55.740Z,98366.59
2022-11-24T21:53:03.473Z,98369.63
2022-11-24T21:56:13.704Z,98368.81
2022-11-24T21:59:17.676Z,98358.41
2022-11-24T22:02:21.224Z,98364.63
2022-11-24T22:05:26.358Z,98370.63
2022-11-24T22:08:31.747Z,98361.84
2022-11-24T22:11:35.344Z,98363.66
2022-11-24T22:14:40.544Z,98369.09
2022-11-24T22:17:44.527Z,98368.72
2022-11-24T22:20:56.434Z,98375.91
2022-11-24T22:24:01.227Z,98380.19
2022-11-24T22:27:04.337Z,98377.75
2022-11-24T22:30:10.644Z,98374.97
2022-11-24T22:33:14.916Z,98384.91
2022-11-24T22:36:22.647Z,98393.56
2022-11-24T22:39:26.043Z,98390.31
2022-11-24T22:42:29.666Z,98402.19
2022-11-24T22:45:33.088Z,98392.59
2022-11-24T22:48:36.880Z,98399.44
2022-11-24T22:51:41.477Z,98397.13
2022-11-24T22:54:45.063Z,98393.88
2022-11-24T22:57:48.739Z,98400.25
2022-11-24T23:00:52.772Z,98398.28
2022-11-24T23:03:56.333Z,98409.84
2022-11-24T23:07:02.560Z,98406.38
2022-11-24T23:10:06.686Z,98413.06
2022-11-24T23:13:10.262Z,98405.22
2022-11-24T23:16:17.017Z,98413.53
2022-11-24T23:19:20.635Z,98421.03
2022-11-24T23:22:25.340Z,98423.47
2022-11-24T23:25:34.695Z,98420.00
2022-11-24T23:28:38.412Z,98411.72
2022-11-24T23:31:42.252Z,98415.97
2022-11-24T23:34:45.504Z,98422.31
2022-11-24T23:38:07.053Z,98420.00
2022-11-24T23:41:15.206Z,98414.81
2022-11-24T23:44:18.899Z,98417.91
2022-11-24T23:47:22.087Z,98419.22
2022-11-24T23:50:25.859Z,98417.25
2022-11-24T23:53:32.740Z,98416.09
2022-11-24T23:56:37.510Z,98423.13
2022-11-24T23:59:40.753Z,98417.59
